Corupa, Brazil
Current Conditions -  °F | °C
As of 8:00 PM on Wednesday 22 Oct 2014 (Local Time) from SBJV Reporting Station
Scattered Clouds Scattered Clouds  
Wind Chill: 70°   Ceiling: Unl
Heat Index: 70°   Visibility: 6mi
Dew Point: 59°   Wind: 6mph
Humidity: 68%   Direction: 30°NNE
Pressure: 30.18"   Gusts: NA
Location:  26.45°S, 49.22°W
Report Text: SBJV 222200Z 03005KT 9999 SCT035 21/15 Q1022
Loading
Personal Weather Stations






























Interactive Weather Map
Tropical Storm Tracking
New forecast layout! Learn more

10-Day Weather Forecast

Advertisements
Track Severe Weather on mobile